Time;durP1;ratioP1;P1;durP2;ratioP2;P2;SDS_P1;SDS_P2;PMS_P1;PMS_P2;Temp;Humidity;BMP_temperature;BMP_pressure;BME280_temperature;BME280_humidity;BME280_pressure;Samples;Min_cycle;Max_cycle;Signal;HPM_P1;HPM_P2
2021/05/25 00:01:03;;;;;;;2.22;0.95;;;;;;;8.07;96.45;95309.91;4968988;28;20123;-62
2021/05/25 00:03:28;;;;;;;0.98;0.80;;;;;;;7.95;98.26;95315.63;4969990;28;20043;-61
2021/05/25 00:05:53;;;;;;;2.10;0.77;;;;;;;7.91;97.38;95335.00;4968058;28;20027;-61
2021/05/25 00:08:19;;;;;;;2.60;0.85;;;;;;;7.87;97.66;95310.16;4952833;29;20581;-63
2021/05/25 00:10:44;;;;;;;2.08;1.17;;;;;;;7.79;97.68;95311.56;4950859;28;20071;-62
2021/05/25 00:13:10;;;;;;;2.05;1.00;;;;;;;7.91;97.99;95321.75;4950462;28;20031;-62
2021/05/25 00:15:36;;;;;;;3.50;1.35;;;;;;;7.95;98.01;95330.72;4958650;28;20397;-62
2021/05/25 00:18:04;;;;;;;5.75;1.30;;;;;;;7.91;98.15;95327.84;4970192;28;20038;-62
2021/05/25 00:20:29;;;;;;;2.95;1.50;;;;;;;7.95;96.84;95320.91;4971777;28;20063;-62
2021/05/25 00:22:55;;;;;;;1.65;1.05;;;;;;;7.87;97.16;95310.94;4969638;28;20154;-62
2021/05/25 00:25:21;;;;;;;1.42;1.15;;;;;;;8.04;96.55;95342.28;4956333;28;20062;-63
2021/05/25 00:27:48;;;;;;;3.03;1.60;;;;;;;8.05;96.03;95344.66;4981686;28;20120;-63
2021/05/25 00:30:16;;;;;;;1.98;1.42;;;;;;;8.05;95.78;95342.00;4955532;28;20049;-62
2021/05/25 00:32:43;;;;;;;5.40;1.50;;;;;;;8.22;96.48;95332.78;4969461;28;20038;-63
2021/05/25 00:35:09;;;;;;;2.97;1.67;;;;;;;8.46;94.85;95327.50;4971847;28;20022;-62
2021/05/25 00:37:35;;;;;;;6.00;1.90;;;;;;;8.19;94.98;95320.91;4969902;28;20051;-62
2021/05/25 00:40:01;;;;;;;3.45;1.10;;;;;;;8.14;94.69;95323.63;4968948;28;20049;-63
2021/05/25 00:42:26;;;;;;;3.28;1.63;;;;;;;8.41;93.06;95331.00;4969396;28;20053;-63
2021/05/25 00:44:53;;;;;;;2.53;1.30;;;;;;;8.36;93.05;95307.22;4968557;28;20110;-63
2021/05/25 00:47:34;;;;;;;4.13;1.50;;;;;;;8.53;93.18;95328.72;4971847;28;20477;-62
2021/05/25 00:50:11;;;;;;;4.55;1.50;;;;;;;8.70;92.85;95341.50;4969907;28;20102;-62
2021/05/25 00:52:54;;;;;;;2.05;1.70;;;;;;;9.05;93.08;95320.81;4953519;28;20028;-62
2021/05/25 00:55:26;;;;;;;3.53;1.73;;;;;;;9.50;92.79;95334.41;4949229;28;20027;-63
2021/05/25 00:57:53;;;;;;;4.35;1.60;;;;;;;9.50;91.73;95329.88;4959421;28;20045;-64
2021/05/25 01:00:26;;;;;;;2.58;0.90;;;;;;;9.18;89.74;95343.16;4969841;28;20504;-62
2021/05/25 01:02:52;;;;;;;1.77;1.10;;;;;;;9.27;88.52;95350.19;4969332;28;20035;-62
2021/05/25 01:05:18;;;;;;;3.08;1.10;;;;;;;9.11;88.81;95347.00;4974746;28;20035;-63
2021/05/25 01:07:43;;;;;;;1.52;1.10;;;;;;;8.63;89.32;95303.91;4973881;28;20043;-63
2021/05/25 01:10:12;;;;;;;1.48;0.85;;;;;;;8.87;89.67;95326.94;4973665;28;20412;-63
2021/05/25 01:12:47;;;;;;;2.08;0.73;;;;;;;8.94;88.56;95330.00;4973169;28;20058;-62
2021/05/25 01:15:14;;;;;;;5.03;1.95;;;;;;;9.14;88.25;95310.31;4973478;28;20808;-63
2021/05/25 01:17:39;;;;;;;2.83;1.10;;;;;;;9.13;87.57;95306.88;4973311;28;20030;-63
2021/05/25 01:20:06;;;;;;;4.45;1.00;;;;;;;8.88;88.10;95307.28;4954679;29;20717;-63
2021/05/25 01:22:31;;;;;;;1.38;0.90;;;;;;;8.71;87.97;95310.44;4953717;28;20051;-63
2021/05/25 01:24:57;;;;;;;3.40;0.70;;;;;;;8.72;87.05;95302.19;4953901;28;20098;-63
2021/05/25 01:27:22;;;;;;;3.53;1.27;;;;;;;9.16;86.67;95306.28;4954018;28;20440;-63
2021/05/25 01:29:48;;;;;;;2.60;1.00;;;;;;;9.26;85.70;95315.94;4955123;28;20037;-64
2021/05/25 01:32:14;;;;;;;2.45;1.10;;;;;;;9.39;86.49;95317.88;4974670;28;20715;-64
2021/05/25 01:34:39;;;;;;;1.13;0.80;;;;;;;9.56;87.70;95294.19;4987900;28;20093;-65
2021/05/25 01:37:05;;;;;;;2.38;1.23;;;;;;;9.78;86.39;95319.31;4973163;28;20447;-64
2021/05/25 01:39:31;;;;;;;2.78;1.10;;;;;;;9.81;85.74;95327.47;4966086;28;20039;-64
2021/05/25 01:41:57;;;;;;;1.67;0.90;;;;;;;9.81;84.21;95324.81;4956285;28;20034;-64
2021/05/25 01:44:22;;;;;;;2.30;0.98;;;;;;;9.67;85.11;95326.66;4974418;28;20106;-64
2021/05/25 01:46:49;;;;;;;2.78;0.90;;;;;;;9.70;83.88;95333.28;4971578;28;20043;-64
2021/05/25 01:49:19;;;;;;;4.28;1.05;;;;;;;9.95;85.37;95329.38;4959631;28;20513;-64
2021/05/25 01:51:49;;;;;;;4.20;1.23;;;;;;;9.95;84.34;95308.09;4984529;28;20055;-66
2021/05/25 01:54:16;;;;;;;2.63;1.08;;;;;;;10.16;84.53;95330.53;4952948;28;20039;-63
2021/05/25 01:56:42;;;;;;;3.28;0.98;;;;;;;10.15;83.80;95334.28;4953877;28;20031;-64
2021/05/25 01:59:08;;;;;;;2.03;1.23;;;;;;;10.11;84.14;95312.03;4974333;28;20159;-63
2021/05/25 02:01:33;;;;;;;4.32;1.55;;;;;;;10.25;83.45;95320.81;4972669;28;20054;-63
2021/05/25 02:03:59;;;;;;;1.60;0.80;;;;;;;10.27;83.10;95326.63;4970791;28;20393;-63
2021/05/25 02:06:25;;;;;;;7.32;1.88;;;;;;;10.27;83.03;95333.81;4966156;28;20058;-63
2021/05/25 02:08:50;;;;;;;2.45;1.10;;;;;;;10.04;80.97;95341.69;4954981;28;20031;-63
2021/05/25 02:11:15;;;;;;;3.00;0.98;;;;;;;9.84;80.59;95339.41;4974312;28;20029;-63
2021/05/25 02:13:41;;;;;;;2.92;1.00;;;;;;;9.79;80.27;95342.16;4971129;28;20031;-63
2021/05/25 02:16:09;;;;;;;2.47;1.00;;;;;;;9.82;81.21;95352.16;4959097;28;20045;-63
2021/05/25 02:18:42;;;;;;;4.32;1.20;;;;;;;9.58;80.85;95345.16;4951643;28;20500;-63
2021/05/25 02:21:09;;;;;;;4.05;0.98;;;;;;;9.40;79.22;95323.97;4952996;28;20508;-63
2021/05/25 02:23:36;;;;;;;3.58;1.20;;;;;;;9.72;80.35;95349.69;4954281;28;20106;-63
2021/05/25 02:26:02;;;;;;;2.78;1.02;;;;;;;9.61;80.95;95343.78;4971766;28;20055;-63
2021/05/25 02:28:27;;;;;;;2.47;1.00;;;;;;;9.88;82.34;95337.72;4971976;28;20049;-63
2021/05/25 02:30:53;;;;;;;3.53;1.08;;;;;;;9.89;80.91;95349.94;4971990;28;20047;-64
2021/05/25 02:33:21;;;;;;;2.80;1.27;;;;;;;9.97;81.85;95338.59;4971522;28;20037;-63
2021/05/25 02:35:49;;;;;;;2.63;1.00;;;;;;;9.78;80.64;95353.84;4970543;28;20037;-63
2021/05/25 02:38:15;;;;;;;5.10;1.25;;;;;;;9.80;81.48;95362.31;4973809;28;20058;-63
2021/05/25 02:40:47;;;;;;;2.30;1.20;;;;;;;9.72;80.02;95355.00;4971804;28;20035;-62
2021/05/25 02:43:14;;;;;;;2.60;1.08;;;;;;;9.61;78.54;95365.81;4970166;28;20122;-63
2021/05/25 02:45:40;;;;;;;3.08;1.10;;;;;;;9.44;80.99;95356.81;4971735;28;20133;-63
2021/05/25 02:48:06;;;;;;;4.28;1.13;;;;;;;9.28;79.62;95367.69;4971932;28;20125;-63
2021/05/25 02:50:32;;;;;;;2.53;0.93;;;;;;;8.92;81.52;95366.66;4973598;28;20027;-63
2021/05/25 02:52:57;;;;;;;3.58;1.25;;;;;;;8.85;80.65;95359.03;4971232;28;20062;-63
2021/05/25 02:55:25;;;;;;;4.82;1.13;;;;;;;9.04;80.47;95372.28;4971444;28;20039;-63
2021/05/25 02:57:51;;;;;;;2.65;1.10;;;;;;;8.92;81.20;95361.34;4971506;28;20492;-63
2021/05/25 03:00:23;;;;;;;4.05;1.10;;;;;;;9.29;81.39;95361.28;4966198;28;20094;-63
2021/05/25 03:02:49;;;;;;;7.22;1.30;;;;;;;9.41;81.90;95362.69;4953344;28;20432;-63
2021/05/25 03:05:16;;;;;;;5.13;1.20;;;;;;;9.18;80.00;95373.16;4973241;28;20026;-64
2021/05/25 03:07:41;;;;;;;2.58;1.02;;;;;;;8.99;80.98;95375.03;4971299;28;20045;-63
2021/05/25 03:10:13;;;;;;;3.05;1.15;;;;;;;9.11;79.13;95381.47;4959142;28;20047;-63
2021/05/25 03:12:39;;;;;;;4.72;1.23;;;;;;;9.29;79.31;95387.06;4958532;28;20086;-63
2021/05/25 03:15:07;;;;;;;4.60;0.95;;;;;;;9.38;79.52;95372.84;4971252;28;20035;-63
2021/05/25 03:17:32;;;;;;;7.97;1.73;;;;;;;9.51;80.66;95392.53;4973060;28;20477;-63
2021/05/25 03:19:58;;;;;;;5.13;1.27;;;;;;;9.37;80.81;95405.78;4970949;28;20058;-63
2021/05/25 03:22:23;;;;;;;3.47;1.00;;;;;;;9.64;81.61;95412.25;4970760;28;20457;-64
2021/05/25 03:24:49;;;;;;;4.13;1.38;;;;;;;9.71;81.74;95399.38;4970993;28;20066;-64
2021/05/25 03:27:14;;;;;;;7.75;1.45;;;;;;;9.82;81.78;95395.47;4970379;28;20039;-64
2021/05/25 03:29:40;;;;;;;6.13;2.00;;;;;;;9.80;82.89;95373.72;4969291;28;20122;-65
2021/05/25 03:32:05;;;;;;;5.63;1.50;;;;;;;9.82;81.41;95389.34;4953414;28;20429;-63
2021/05/25 03:34:31;;;;;;;3.72;1.20;;;;;;;9.77;82.05;95376.94;4966312;28;20106;-64
2021/05/25 03:36:56;;;;;;;3.92;1.30;;;;;;;9.85;82.05;95370.97;4960170;28;20046;-64
2021/05/25 03:39:22;;;;;;;6.38;1.38;;;;;;;10.12;82.93;95396.78;4957247;28;20038;-65
2021/05/25 03:41:47;;;;;;;2.88;1.75;;;;;;;10.20;82.26;95387.34;4969511;28;20077;-65
2021/05/25 03:44:14;;;;;;;8.68;1.60;;;;;;;10.19;81.95;95377.03;4972062;28;20480;-66
2021/05/25 03:46:43;;;;;;;3.05;1.20;;;;;;;10.34;81.76;95382.88;4970920;28;20078;-71
2021/05/25 03:49:09;;;;;;;3.95;1.40;;;;;;;10.31;80.91;95382.66;4970666;28;20043;-70
2021/05/25 03:51:35;;;;;;;5.55;1.65;;;;;;;10.34;80.87;95382.06;4970642;28;20035;-67
2021/05/25 03:54:06;;;;;;;4.70;1.35;;;;;;;10.37;81.18;95379.59;4967037;28;20039;-69
2021/05/25 03:56:35;;;;;;;5.05;1.50;;;;;;;10.35;81.41;95365.81;4953068;28;20069;-66
2021/05/25 03:59:00;;;;;;;4.10;1.02;;;;;;;10.28;80.63;95352.13;4970622;28;20616;-69
2021/05/25 04:01:27;;;;;;;2.38;1.30;;;;;;;10.37;80.78;95368.97;4956112;28;20130;-69
2021/05/25 04:03:55;;;;;;;7.45;1.55;;;;;;;10.43;80.81;95380.28;4959586;28;20150;-67
2021/05/25 04:06:20;;;;;;;4.22;1.35;;;;;;;10.37;81.09;95368.97;4964610;28;20174;-66
2021/05/25 04:08:47;;;;;;;3.60;1.33;;;;;;;10.30;80.44;95381.88;4952115;28;20122;-67
2021/05/25 04:11:13;;;;;;;2.47;1.20;;;;;;;10.31;80.68;95394.06;4972149;28;20108;-66
2021/05/25 04:13:39;;;;;;;2.30;0.93;;;;;;;10.31;80.76;95407.38;4969798;28;20078;-66
2021/05/25 04:16:08;;;;;;;2.80;1.25;;;;;;;10.32;79.19;95405.50;4958529;28;20490;-66
2021/05/25 04:18:35;;;;;;;3.00;0.93;;;;;;;10.22;79.21;95416.28;4956756;28;20477;-67
2021/05/25 04:21:00;;;;;;;2.58;1.40;;;;;;;10.28;80.38;95418.59;4965832;28;20097;-67
2021/05/25 04:23:26;;;;;;;3.47;1.10;;;;;;;10.21;80.46;95406.75;4952318;28;20042;-66
2021/05/25 04:25:52;;;;;;;4.05;1.10;;;;;;;10.21;79.88;95412.84;4968445;28;20121;-66
2021/05/25 04:28:17;;;;;;;4.40;1.20;;;;;;;10.36;80.71;95423.22;4970048;28;20514;-67
2021/05/25 04:30:43;;;;;;;6.97;1.75;;;;;;;10.29;80.89;95417.53;4961508;28;20047;-72
2021/05/25 04:33:08;;;;;;;3.55;1.10;;;;;;;10.47;80.86;95436.34;4949062;28;20031;-66
2021/05/25 04:35:34;;;;;;;5.38;1.80;;;;;;;10.65;80.76;95435.44;4952383;28;20113;-66
2021/05/25 04:38:00;;;;;;;5.88;1.67;;;;;;;10.64;80.07;95416.03;4981512;28;20031;-66
2021/05/25 04:40:26;;;;;;;3.10;1.23;;;;;;;10.14;76.87;95428.41;4949255;28;20050;-66
2021/05/25 04:42:52;;;;;;;2.55;1.30;;;;;;;10.33;78.06;95423.81;4960003;28;20401;-66
2021/05/25 04:45:18;;;;;;;5.68;1.17;;;;;;;10.41;78.08;95425.00;4968430;28;20097;-65
2021/05/25 04:47:44;;;;;;;2.58;0.90;;;;;;;10.40;74.56;95434.84;4969834;28;20031;-65
2021/05/25 04:50:11;;;;;;;1.15;0.60;;;;;;;10.06;73.10;95445.03;4971648;28;20074;-65
2021/05/25 04:52:37;;;;;;;4.95;0.80;;;;;;;10.13;75.69;95440.09;4953665;28;20062;-66
2021/05/25 04:55:09;;;;;;;1.58;1.00;;;;;;;10.24;75.12;95436.22;4950442;28;20098;-65
2021/05/25 04:57:35;;;;;;;3.72;0.90;;;;;;;9.80;74.90;95424.19;4958081;28;20049;-65
2021/05/25 05:00:00;;;;;;;3.47;0.88;;;;;;;10.29;74.20;95435.34;4966464;28;20051;-65
2021/05/25 05:02:26;;;;;;;3.40;0.80;;;;;;;9.46;74.56;95439.63;4950772;29;20067;-65
2021/05/25 05:04:51;;;;;;;2.13;0.80;;;;;;;9.63;75.41;95438.03;4950339;28;20090;-65
2021/05/25 05:07:16;;;;;;;1.92;0.85;;;;;;;9.45;73.34;95433.53;4963730;28;20031;-66
2021/05/25 05:09:42;;;;;;;3.88;0.77;;;;;;;9.08;75.04;95434.34;4969708;28;20043;-65
2021/05/25 05:12:08;;;;;;;2.80;0.93;;;;;;;8.72;73.95;95444.63;4969371;28;20388;-65
2021/05/25 05:14:33;;;;;;;2.10;0.73;;;;;;;8.96;72.69;95444.59;4971337;28;20027;-65
2021/05/25 05:16:59;;;;;;;4.35;1.05;;;;;;;9.07;70.34;95457.44;4969341;28;20043;-65
2021/05/25 05:19:24;;;;;;;2.40;0.85;;;;;;;9.00;68.57;95451.66;4969460;28;20042;-64
2021/05/25 05:21:50;;;;;;;2.47;0.60;;;;;;;8.72;68.47;95461.31;4969549;28;20049;-65
2021/05/25 05:24:16;;;;;;;4.35;1.85;;;;;;;8.72;67.68;95440.09;4969056;28;20046;-65
2021/05/25 05:26:41;;;;;;;3.65;1.00;;;;;;;8.70;69.02;95458.19;4969126;28;20034;-64
2021/05/25 05:29:07;;;;;;;1.90;0.90;;;;;;;8.40;67.89;95469.13;4971159;28;20038;-64
2021/05/25 05:31:32;;;;;;;2.42;0.68;;;;;;;8.62;67.52;95458.78;4954165;28;20130;-64
2021/05/25 05:33:57;;;;;;;3.80;0.68;;;;;;;8.36;66.60;95444.22;4949690;28;20067;-64
2021/05/25 05:36:23;;;;;;;4.35;0.77;;;;;;;8.27;66.35;95441.38;4956104;28;20167;-65
2021/05/25 05:38:48;;;;;;;4.32;0.70;;;;;;;8.27;65.57;95447.47;4969286;28;20058;-65
2021/05/25 05:41:14;;;;;;;8.23;1.00;;;;;;;8.34;66.19;95434.69;4969808;28;20531;-65
2021/05/25 05:43:40;;;;;;;7.68;1.25;;;;;;;8.93;66.81;95453.13;4968928;28;20035;-66
2021/05/25 05:46:06;;;;;;;3.00;0.93;;;;;;;9.13;63.06;95455.50;4957541;28;20047;-65
2021/05/25 05:48:31;;;;;;;3.63;0.85;;;;;;;8.99;64.46;95473.19;4955796;28;20079;-65
2021/05/25 05:50:57;;;;;;;2.08;0.60;;;;;;;9.06;64.21;95465.69;4971721;28;22654;-65
2021/05/25 05:53:23;;;;;;;6.07;1.40;;;;;;;8.94;64.50;95462.66;4972677;28;20050;-66
2021/05/25 05:55:48;;;;;;;5.22;1.25;;;;;;;9.13;63.71;95462.66;4972552;28;20449;-67
2021/05/25 05:58:14;;;;;;;6.82;1.40;;;;;;;9.11;63.82;95450.47;4972606;28;20046;-66
2021/05/25 06:00:41;;;;;;;8.23;0.85;;;;;;;8.89;64.67;95475.97;4971155;28;20042;-67
2021/05/25 06:03:08;;;;;;;4.70;1.10;;;;;;;9.46;62.72;95453.69;4972168;28;20167;-66
2021/05/25 06:05:35;;;;;;;3.58;0.82;;;;;;;9.33;62.68;95476.44;4973920;28;20019;-66
2021/05/25 06:08:01;;;;;;;5.68;0.93;;;;;;;9.59;62.20;95492.00;4971034;28;20392;-67
2021/05/25 06:10:29;;;;;;;3.08;1.15;;;;;;;9.98;60.16;95498.84;4971242;28;20034;-67
2021/05/25 06:12:54;;;;;;;6.45;0.75;;;;;;;9.98;59.78;95485.53;4972720;28;20077;-66
2021/05/25 06:15:20;;;;;;;3.30;0.80;;;;;;;9.78;59.49;95481.38;4972666;28;20493;-68
2021/05/25 06:17:46;;;;;;;2.47;1.00;;;;;;;10.41;59.94;95486.94;4973222;28;20054;-73
2021/05/25 06:20:12;;;;;;;7.47;1.25;;;;;;;10.06;58.34;95512.25;4974479;28;20053;-65
2021/05/25 06:22:38;;;;;;;6.47;1.27;;;;;;;10.18;60.36;95508.34;4954729;28;20097;-58
2021/05/25 06:25:04;;;;;;;6.10;1.05;;;;;;;10.89;57.34;95510.50;4964023;28;20038;-58
2021/05/25 06:27:29;;;;;;;3.20;1.23;;;;;;;11.48;56.26;95477.91;4971755;28;20472;-59
2021/05/25 06:29:55;;;;;;;3.40;0.77;;;;;;;11.60;54.00;95496.78;4969736;28;20034;-64
2021/05/25 06:32:20;;;;;;;7.15;1.25;;;;;;;11.75;53.82;95483.13;4954292;28;20496;-64
2021/05/25 06:34:47;;;;;;;8.05;1.20;;;;;;;11.27;56.34;95481.00;4969705;28;20035;-73
2021/05/25 06:37:12;;;;;;;4.32;1.20;;;;;;;11.72;55.16;95494.41;4959229;28;20050;-64
2021/05/25 06:39:37;;;;;;;6.82;1.73;;;;;;;11.33;54.86;95498.44;4960677;28;20035;-66
2021/05/25 06:42:03;;;;;;;5.05;1.40;;;;;;;11.46;54.92;95483.50;4986856;28;20039;-72
2021/05/25 06:44:31;;;;;;;5.38;2.03;;;;;;;11.41;56.31;95484.44;4973565;28;20023;-75
2021/05/25 06:46:58;;;;;;;5.80;0.98;;;;;;;11.46;54.53;95478.19;4972158;28;20037;-75
2021/05/25 06:49:23;;;;;;;7.10;1.70;;;;;;;12.12;53.71;95503.31;4971596;28;20141;-75
2021/05/25 06:51:48;;;;;;;8.82;1.63;;;;;;;12.56;54.18;95491.00;4971038;28;20129;-66
2021/05/25 06:54:14;;;;;;;5.40;1.10;;;;;;;12.12;52.24;95502.53;4966851;28;20134;-73
2021/05/25 06:56:40;;;;;;;2.83;0.82;;;;;;;10.67;55.86;95515.75;4953403;28;20030;-80
2021/05/25 06:59:05;;;;;;;5.32;0.98;;;;;;;9.98;56.83;95493.50;4954721;29;20028;-74
2021/05/25 07:01:30;;;;;;;1.25;0.70;;;;;;;9.38;57.43;95489.66;4966386;28;20045;-71
2021/05/25 07:03:56;;;;;;;3.75;0.85;;;;;;;9.88;58.01;95515.75;4959118;28;20082;-67
2021/05/25 07:06:23;;;;;;;3.00;0.85;;;;;;;9.92;55.74;95502.66;4954982;28;20525;-66
2021/05/25 07:08:48;;;;;;;4.40;1.00;;;;;;;10.52;54.30;95527.44;4953728;28;20047;-65
2021/05/25 07:11:13;;;;;;;3.05;0.82;;;;;;;10.39;55.50;95513.06;4973112;28;20068;-67
2021/05/25 07:13:39;;;;;;;3.92;1.27;;;;;;;10.86;54.28;95518.31;4970390;28;20572;-66
2021/05/25 07:16:04;;;;;;;3.08;0.82;;;;;;;11.50;52.82;95510.34;4971197;28;20039;-65
2021/05/25 07:18:30;;;;;;;3.72;0.93;;;;;;;11.51;52.56;95499.38;4964271;28;20041;-63
2021/05/25 07:20:55;;;;;;;5.75;1.00;;;;;;;12.69;49.35;95510.66;4956298;28;20409;-65
2021/05/25 07:23:20;;;;;;;4.25;1.00;;;;;;;13.71;47.80;95524.59;4971249;28;20477;-67
2021/05/25 07:25:46;;;;;;;1.55;0.70;;;;;;;12.79;46.76;95501.59;4971050;28;20031;-67
2021/05/25 07:28:11;;;;;;;2.50;0.85;;;;;;;11.55;49.16;95526.22;4958724;28;20031;-67
2021/05/25 07:30:37;;;;;;;3.70;0.90;;;;;;;11.85;49.51;95519.44;4951661;28;20134;-73
2021/05/25 07:33:02;;;;;;;2.50;0.90;;;;;;;12.06;48.40;95509.88;4954567;28;20050;-75
2021/05/25 07:35:28;;;;;;;3.17;0.60;;;;;;;11.49;50.09;95496.22;4973894;28;20034;-75
2021/05/25 07:37:53;;;;;;;5.38;0.98;;;;;;;11.52;48.50;95524.94;4971357;28;20031;-72
2021/05/25 07:40:19;;;;;;;3.17;0.75;;;;;;;11.05;49.86;95510.22;4971104;28;20081;-74
2021/05/25 07:42:46;;;;;;;4.10;1.00;;;;;;;12.18;48.86;95522.63;4970813;28;20551;-74
2021/05/25 07:45:12;;;;;;;2.30;0.70;;;;;;;11.43;48.81;95538.19;4966512;28;20075;-76
2021/05/25 07:47:38;;;;;;;4.18;0.90;;;;;;;10.68;50.37;95509.34;4951727;28;20143;-70
2021/05/25 07:50:14;;;;;;;4.03;0.93;;;;;;;10.31;50.71;95528.91;4972731;28;20027;-73
2021/05/25 07:52:42;;;;;;;4.07;0.95;;;;;;;10.27;50.49;95523.34;4970447;28;20039;-73
2021/05/25 07:55:10;;;;;;;2.28;0.95;;;;;;;10.53;51.05;95538.88;4958421;28;20047;-72
2021/05/25 07:57:35;;;;;;;4.20;0.80;;;;;;;10.57;51.20;95542.53;4957780;28;20073;-73
2021/05/25 08:00:00;;;;;;;4.47;0.88;;;;;;;11.27;49.18;95512.19;4970341;28;20070;-70
2021/05/25 08:02:26;;;;;;;3.17;0.68;;;;;;;11.01;50.30;95520.69;4970990;28;20027;-71
2021/05/25 08:04:51;;;;;;;4.43;1.02;;;;;;;11.34;50.83;95531.97;4970773;28;20503;-73
2021/05/25 08:07:17;;;;;;;2.83;0.75;;;;;;;11.53;49.31;95525.72;4970796;28;20070;-68
2021/05/25 08:09:45;;;;;;;4.18;0.82;;;;;;;12.30;49.09;95525.56;4961660;28;20044;-68
2021/05/25 08:12:11;;;;;;;4.75;1.17;;;;;;;13.42;45.35;95525.22;4954662;28;20034;-68
2021/05/25 08:14:37;;;;;;;4.20;0.75;;;;;;;12.77;46.01;95519.81;4972015;28;20513;-77
2021/05/25 08:17:07;;;;;;;3.72;0.90;;;;;;;12.19;47.40;95540.25;4971408;28;20045;-76
2021/05/25 08:19:34;;;;;;;2.40;1.00;;;;;;;12.11;47.29;95522.28;4955982;28;20386;-74
2021/05/25 08:21:59;;;;;;;4.80;1.05;;;;;;;12.90;46.69;95527.72;4962490;28;20082;-76
2021/05/25 08:24:25;;;;;;;3.35;0.63;;;;;;;12.51;47.54;95533.03;4970093;28;20039;-69
2021/05/25 08:26:50;;;;;;;3.85;1.20;;;;;;;12.77;47.68;95533.94;4969849;28;20536;-69
2021/05/25 08:29:16;;;;;;;1.35;0.35;;;;;;;11.43;49.67;95534.72;4971662;28;20043;-69
2021/05/25 08:31:41;;;;;;;4.88;0.98;;;;;;;12.16;48.36;95538.16;4953313;28;20117;-66
2021/05/25 08:34:07;;;;;;;2.40;0.75;;;;;;;11.93;48.86;95535.50;4960433;28;20104;-71
2021/05/25 08:36:34;;;;;;;3.65;0.85;;;;;;;12.68;47.81;95544.56;4962859;28;20140;-69
2021/05/25 08:39:00;;;;;;;2.28;0.77;;;;;;;12.47;47.05;95538.19;4950543;28;20078;-70
2021/05/25 08:41:26;;;;;;;3.70;0.95;;;;;;;12.66;47.21;95533.44;4952279;29;20035;-69
2021/05/25 08:43:51;;;;;;;3.90;1.00;;;;;;;12.85;46.53;95519.88;4967943;28;20028;-69
2021/05/25 08:46:17;;;;;;;4.88;1.55;;;;;;;13.18;46.58;95520.28;4969917;28;20038;-70
2021/05/25 08:48:43;;;;;;;2.08;0.50;;;;;;;11.87;47.46;95533.25;4970032;28;20054;-70
2021/05/25 08:51:09;;;;;;;2.92;0.90;;;;;;;12.54;46.12;95503.06;4970014;28;20793;-69
2021/05/25 08:53:35;;;;;;;3.95;0.73;;;;;;;11.68;48.28;95538.72;5002404;28;20366;-69
2021/05/25 08:56:02;;;;;;;7.00;0.95;;;;;;;12.01;45.95;95528.66;4950536;28;20046;-70
2021/05/25 08:58:27;;;;;;;2.13;0.43;;;;;;;12.29;45.68;95517.88;4950352;28;20039;-68
2021/05/25 09:00:55;;;;;;;3.70;0.77;;;;;;;13.68;42.33;95527.94;4960488;28;20051;-69
2021/05/25 09:03:21;;;;;;;6.85;1.48;;;;;;;13.88;42.55;95544.47;4969366;28;20031;-69
2021/05/25 09:05:59;;;;;;;2.03;0.82;;;;;;;14.25;39.61;95546.47;4968291;28;20030;-69
2021/05/25 09:08:25;;;;;;;2.05;0.68;;;;;;;13.27;41.41;95547.81;4971635;28;20027;-69
2021/05/25 09:10:51;;;;;;;2.80;0.70;;;;;;;12.67;42.01;95555.56;5000812;28;20053;-69
2021/05/25 09:13:24;;;;;;;2.45;0.63;;;;;;;13.17;40.96;95545.41;4956008;28;20028;-69
2021/05/25 09:15:55;;;;;;;1.38;0.73;;;;;;;12.44;41.99;95557.50;4959987;28;20035;-69
2021/05/25 09:18:21;;;;;;;6.72;0.70;;;;;;;11.96;43.15;95542.09;4969418;28;20083;-69
2021/05/25 09:20:53;;;;;;;1.58;0.40;;;;;;;11.60;43.17;95563.41;4967938;28;20038;-69
2021/05/25 09:26:06;;;;;;;3.63;0.60;;;;;;;11.77;44.68;95547.56;4972147;28;20047;-67
2021/05/25 09:28:36;;;;;;;3.42;0.88;;;;;;;11.85;45.43;95530.88;4971567;28;20027;-68
2021/05/25 09:31:05;;;;;;;2.03;0.30;;;;;;;11.21;43.94;95556.75;4973258;28;20046;-68
2021/05/25 09:33:34;;;;;;;4.47;0.75;;;;;;;11.64;44.14;95541.19;4972674;28;20039;-68
2021/05/25 09:36:10;;;;;;;2.58;0.57;;;;;;;11.34;44.96;95531.19;4973184;28;20034;-68
2021/05/25 09:38:37;;;;;;;4.03;0.93;;;;;;;11.52;44.82;95524.94;4973569;28;20480;-69
2021/05/25 09:41:04;;;;;;;3.05;1.00;;;;;;;11.54;44.56;95524.63;4972762;28;20047;-68
2021/05/25 09:43:32;;;;;;;4.15;0.57;;;;;;;11.78;45.64;95511.06;4971192;28;20496;-68
2021/05/25 09:46:00;;;;;;;2.38;0.50;;;;;;;11.78;45.32;95541.16;4962226;28;20063;-69
2021/05/25 09:48:28;;;;;;;2.45;0.80;;;;;;;11.74;44.89;95539.41;4958778;28;20408;-69
2021/05/25 09:50:54;;;;;;;2.60;0.90;;;;;;;11.92;42.55;95531.25;4972665;28;20026;-68
2021/05/25 09:53:23;;;;;;;2.53;0.60;;;;;;;11.83;43.48;95527.75;4974235;28;20121;-70
2021/05/25 09:55:51;;;;;;;4.47;0.77;;;;;;;12.09;43.71;95557.25;4972608;28;20031;-68
2021/05/25 09:58:18;;;;;;;1.67;0.47;;;;;;;11.61;44.85;95549.78;4987647;28;20047;-67
2021/05/25 10:00:46;;;;;;;2.08;0.55;;;;;;;11.87;44.20;95574.00;4971319;28;20520;-68
2021/05/25 10:03:16;;;;;;;3.00;0.55;;;;;;;11.96;44.68;95558.88;4972132;28;20062;-68
2021/05/25 10:05:55;;;;;;;4.57;0.43;;;;;;;11.42;45.60;95543.81;4972637;28;20089;-68
2021/05/25 10:08:24;;;;;;;4.53;0.70;;;;;;;11.58;46.24;95568.25;4974729;28;20054;-68
2021/05/25 10:10:51;;;;;;;3.08;0.90;;;;;;;12.09;45.45;95553.81;4954637;28;20520;-68
2021/05/25 10:13:18;;;;;;;5.68;0.73;;;;;;;12.41;45.02;95542.09;4965838;28;20035;-68
2021/05/25 10:15:48;;;;;;;6.63;0.80;;;;;;;12.83;43.70;95546.06;4972442;28;20150;-68
2021/05/25 10:20:56;;;;;;;4.57;0.65;;;;;;;13.05;42.93;95563.09;4955500;28;20045;-68
2021/05/25 10:23:23;;;;;;;2.78;0.70;;;;;;;12.60;43.36;95563.25;4973665;28;20042;-69
2021/05/25 10:25:52;;;;;;;2.47;0.45;;;;;;;12.46;44.52;95553.41;4972107;28;20035;-69
2021/05/25 10:28:18;;;;;;;1.33;0.50;;;;;;;12.63;43.58;95565.28;4958888;28;20107;-69
2021/05/25 10:30:51;;;;;;;0.60;0.30;;;;;;;11.58;43.50;95568.25;4952780;28;20043;-69
2021/05/25 10:33:17;;;;;;;0.30;0.30;;;;;;;11.52;44.38;95559.59;4957543;28;20552;-69
2021/05/25 10:35:49;;;;;;;0.98;0.40;;;;;;;11.60;44.88;95564.19;4971796;28;20102;-69
2021/05/25 10:38:16;;;;;;;3.83;0.55;;;;;;;11.71;45.53;95562.88;4972982;28;20431;-69
2021/05/25 10:40:48;;;;;;;5.13;0.45;;;;;;;11.56;46.06;95571.19;4967376;28;20045;-68
2021/05/25 10:43:42;;;;;;;3.22;0.50;;;;;;;12.09;44.83;95546.59;4964874;28;20073;-68
2021/05/25 10:46:11;;;;;;;3.50;0.93;;;;;;;12.84;44.52;95549.53;4968582;28;20157;-67
2021/05/25 10:49:07;;;;;;;4.28;0.70;;;;;;;12.28;43.94;95565.06;4971997;28;20126;-68
2021/05/25 10:51:48;;;;;;;2.45;0.63;;;;;;;12.26;43.60;95575.25;4961306;28;20074;-68
2021/05/25 10:54:25;;;;;;;5.63;1.10;;;;;;;12.63;42.91;95550.06;4957094;28;20114;-67
2021/05/25 10:56:52;;;;;;;3.17;0.35;;;;;;;12.75;42.69;95536.16;4971635;28;20361;-68
2021/05/25 10:59:19;;;;;;;1.73;0.60;;;;;;;12.69;42.69;95548.03;4973844;28;20038;-68
2021/05/25 11:01:52;;;;;;;1.65;0.40;;;;;;;12.65;41.77;95576.44;4954831;28;20035;-68
2021/05/25 11:04:22;;;;;;;6.15;0.63;;;;;;;12.80;41.84;95572.59;4965037;28;20030;-69
2021/05/25 11:06:48;;;;;;;3.42;0.80;;;;;;;12.67;41.50;95534.22;4971845;28;20050;-69
2021/05/25 11:09:28;;;;;;;2.90;0.80;;;;;;;12.83;41.30;95558.63;4977231;23;20056;-64
2021/05/25 11:12:08;;;;;;;3.92;0.85;;;;;;;12.81;40.98;95558.16;4933042;28;20059;-65
2021/05/25 11:14:34;;;;;;;2.45;0.38;;;;;;;12.86;41.35;95564.16;4934914;29;20032;-65
2021/05/25 11:17:29;;;;;;;2.92;0.50;;;;;;;13.67;38.36;95571.03;4933128;29;20042;-65
2021/05/25 11:20:11;;;;;;;2.65;0.60;;;;;;;13.95;38.79;95547.44;4932881;28;20048;-65
2021/05/25 11:22:38;;;;;;;1.95;0.98;;;;;;;13.87;39.49;95574.94;4932554;28;20071;-65
2021/05/25 11:25:06;;;;;;;2.75;0.60;;;;;;;14.03;39.42;95568.06;4932538;29;20513;-65
2021/05/25 11:27:35;;;;;;;2.22;0.60;;;;;;;13.41;41.86;95570.94;4932701;28;20048;-65
2021/05/25 11:30:11;;;;;;;3.10;0.60;;;;;;;13.28;42.13;95561.97;4932545;28;20114;-65
2021/05/25 11:32:46;;;;;;;3.03;0.55;;;;;;;12.22;42.37;95568.94;4934067;29;20024;-65
2021/05/25 11:35:19;;;;;;;3.28;0.68;;;;;;;12.18;42.43;95570.63;4932990;29;20446;-64
2021/05/25 11:37:46;;;;;;;1.27;0.32;;;;;;;12.23;41.60;95571.34;4932400;29;20048;-64
2021/05/25 11:40:14;;;;;;;2.97;1.02;;;;;;;12.84;40.90;95577.00;4932521;28;20073;-64
2021/05/25 11:42:43;;;;;;;2.90;0.82;;;;;;;13.46;39.82;95566.28;4946380;28;20044;-65